sensor_id;sensor_type;location;lat;lon;timestamp;pressure;altitude;pressure_sealevel;temperature;humidity
82887;BME280;72660;51.258;-2.200;2024-03-08T00:01:46;100551.58;;;3.78;57.13
82887;BME280;72660;51.258;-2.200;2024-03-08T00:04:11;100550.08;;;4.55;56.04
82887;BME280;72660;51.258;-2.200;2024-03-08T00:06:37;100547.93;;;3.78;57.30
82887;BME280;72660;51.258;-2.200;2024-03-08T00:09:02;100546.09;;;4.41;56.57
82887;BME280;72660;51.258;-2.200;2024-03-08T00:11:28;100543.02;;;4.23;56.46
82887;BME280;72660;51.258;-2.200;2024-03-08T00:13:53;100542.54;;;4.54;55.74
82887;BME280;72660;51.258;-2.200;2024-03-08T00:16:19;100539.34;;;4.55;56.25
82887;BME280;72660;51.258;-2.200;2024-03-08T00:18:44;100537.86;;;5.10;54.53
82887;BME280;72660;51.258;-2.200;2024-03-08T00:21:09;100532.13;;;5.26;54.46
82887;BME280;72660;51.258;-2.200;2024-03-08T00:23:35;100530.29;;;4.78;54.93
82887;BME280;72660;51.258;-2.200;2024-03-08T00:26:06;100522.17;;;4.35;55.95
82887;BME280;72660;51.258;-2.200;2024-03-08T00:28:26;100517.33;;;4.53;56.00
82887;BME280;72660;51.258;-2.200;2024-03-08T00:30:52;100518.42;;;4.24;56.48
82887;BME280;72660;51.258;-2.200;2024-03-08T00:33:18;100519.28;;;3.86;56.68
82887;BME280;72660;51.258;-2.200;2024-03-08T00:35:43;100519.89;;;4.66;55.11
82887;BME280;72660;51.258;-2.200;2024-03-08T00:38:08;100514.45;;;4.76;55.09
82887;BME280;72660;51.258;-2.200;2024-03-08T00:40:34;100513.01;;;5.07;54.58
82887;BME280;72660;51.258;-2.200;2024-03-08T00:42:59;100511.45;;;5.12;54.17
82887;BME280;72660;51.258;-2.200;2024-03-08T00:45:25;100510.10;;;4.32;55.94
82887;BME280;72660;51.258;-2.200;2024-03-08T00:47:51;100504.84;;;4.67;55.69
82887;BME280;72660;51.258;-2.200;2024-03-08T00:50:16;100500.83;;;3.97;57.45
82887;BME280;72660;51.258;-2.200;2024-03-08T00:52:41;100490.79;;;5.17;55.16
82887;BME280;72660;51.258;-2.200;2024-03-08T00:55:07;100487.52;;;4.72;55.56
82887;BME280;72660;51.258;-2.200;2024-03-08T00:57:32;100484.79;;;4.77;55.73
82887;BME280;72660;51.258;-2.200;2024-03-08T00:59:58;100479.70;;;4.64;55.82
82887;BME280;72660;51.258;-2.200;2024-03-08T01:02:23;100477.59;;;4.28;56.52
82887;BME280;72660;51.258;-2.200;2024-03-08T01:04:49;100472.84;;;4.69;56.27
82887;BME280;72660;51.258;-2.200;2024-03-08T01:07:15;100471.45;;;4.08;57.48
82887;BME280;72660;51.258;-2.200;2024-03-08T01:09:41;100462.64;;;4.53;56.44
82887;BME280;72660;51.258;-2.200;2024-03-08T01:12:06;100458.09;;;3.94;57.62
82887;BME280;72660;51.258;-2.200;2024-03-08T01:14:31;100457.07;;;3.93;57.27
82887;BME280;72660;51.258;-2.200;2024-03-08T01:16:56;100457.86;;;3.98;58.00
82887;BME280;72660;51.258;-2.200;2024-03-08T01:19:22;100456.29;;;4.06;57.85
82887;BME280;72660;51.258;-2.200;2024-03-08T01:21:47;100450.27;;;3.94;58.15
82887;BME280;72660;51.258;-2.200;2024-03-08T01:24:12;100447.48;;;4.42;57.14
82887;BME280;72660;51.258;-2.200;2024-03-08T01:26:38;100440.14;;;4.64;56.64
82887;BME280;72660;51.258;-2.200;2024-03-08T01:29:03;100436.39;;;4.67;56.45
82887;BME280;72660;51.258;-2.200;2024-03-08T01:31:28;100430.03;;;4.26;57.75
82887;BME280;72660;51.258;-2.200;2024-03-08T01:33:53;100425.98;;;3.81;58.29
82887;BME280;72660;51.258;-2.200;2024-03-08T01:36:19;100416.86;;;4.01;58.32
82887;BME280;72660;51.258;-2.200;2024-03-08T01:38:44;100407.50;;;4.12;57.69
82887;BME280;72660;51.258;-2.200;2024-03-08T01:41:10;100403.07;;;4.48;57.40
82887;BME280;72660;51.258;-2.200;2024-03-08T01:43:35;100398.67;;;3.61;58.93
82887;BME280;72660;51.258;-2.200;2024-03-08T01:46:01;100395.35;;;3.93;58.45
82887;BME280;72660;51.258;-2.200;2024-03-08T01:48:26;100392.67;;;3.45;59.59
82887;BME280;72660;51.258;-2.200;2024-03-08T01:50:52;100393.48;;;3.10;61.41
82887;BME280;72660;51.258;-2.200;2024-03-08T01:53:18;100391.80;;;3.26;60.38
82887;BME280;72660;51.258;-2.200;2024-03-08T01:55:42;100381.76;;;3.61;59.59
82887;BME280;72660;51.258;-2.200;2024-03-08T01:58:10;100371.39;;;4.31;58.40
82887;BME280;72660;51.258;-2.200;2024-03-08T02:00:33;100366.16;;;3.56;59.42
82887;BME280;72660;51.258;-2.200;2024-03-08T02:02:58;100358.15;;;3.01;61.36
82887;BME280;72660;51.258;-2.200;2024-03-08T02:05:23;100358.92;;;3.04;61.29
82887;BME280;72660;51.258;-2.200;2024-03-08T02:07:49;100356.03;;;2.69;62.48
82887;BME280;72660;51.258;-2.200;2024-03-08T02:10:14;100353.07;;;3.00;61.47
82887;BME280;72660;51.258;-2.200;2024-03-08T02:12:39;100351.27;;;3.38;60.54
82887;BME280;72660;51.258;-2.200;2024-03-08T02:15:05;100347.01;;;3.58;60.84
82887;BME280;72660;51.258;-2.200;2024-03-08T02:17:30;100342.71;;;3.33;61.60
82887;BME280;72660;51.258;-2.200;2024-03-08T02:19:55;100345.61;;;2.70;63.05
82887;BME280;72660;51.258;-2.200;2024-03-08T02:22:20;100339.62;;;3.47;61.13
82887;BME280;72660;51.258;-2.200;2024-03-08T02:24:46;100338.54;;;3.43;60.78
82887;BME280;72660;51.258;-2.200;2024-03-08T02:27:11;100332.41;;;4.26;60.28
82887;BME280;72660;51.258;-2.200;2024-03-08T02:29:37;100325.64;;;3.71;59.47
82887;BME280;72660;51.258;-2.200;2024-03-08T02:32:02;100321.75;;;2.79;61.66
82887;BME280;72660;51.258;-2.200;2024-03-08T02:34:27;100316.01;;;3.94;59.19
82887;BME280;72660;51.258;-2.200;2024-03-08T02:36:53;100312.11;;;4.03;58.84
82887;BME280;72660;51.258;-2.200;2024-03-08T02:39:18;100309.18;;;3.83;59.03
82887;BME280;72660;51.258;-2.200;2024-03-08T02:41:43;100303.27;;;4.12;58.56
82887;BME280;72660;51.258;-2.200;2024-03-08T02:44:09;100302.77;;;4.27;58.15
82887;BME280;72660;51.258;-2.200;2024-03-08T02:46:34;100298.80;;;3.60;59.13
82887;BME280;72660;51.258;-2.200;2024-03-08T02:49:01;100293.16;;;4.24;58.68
82887;BME280;72660;51.258;-2.200;2024-03-08T02:51:26;100289.41;;;4.62;57.35
82887;BME280;72660;51.258;-2.200;2024-03-08T02:53:51;100284.88;;;3.53;59.23
82887;BME280;72660;51.258;-2.200;2024-03-08T02:56:16;100283.81;;;4.03;58.47
82887;BME280;72660;51.258;-2.200;2024-03-08T02:58:41;100279.47;;;3.37;59.94
82887;BME280;72660;51.258;-2.200;2024-03-08T03:01:07;100270.17;;;3.47;59.65
82887;BME280;72660;51.258;-2.200;2024-03-08T03:03:32;100267.28;;;3.45;59.62
82887;BME280;72660;51.258;-2.200;2024-03-08T03:05:57;100261.78;;;4.43;57.88
82887;BME280;72660;51.258;-2.200;2024-03-08T03:08:22;100254.27;;;4.38;58.33
82887;BME280;72660;51.258;-2.200;2024-03-08T03:10:48;100253.51;;;4.54;57.81
82887;BME280;72660;51.258;-2.200;2024-03-08T03:13:14;100251.56;;;4.51;57.84
82887;BME280;72660;51.258;-2.200;2024-03-08T03:15:40;100251.73;;;4.48;56.93
82887;BME280;72660;51.258;-2.200;2024-03-08T03:18:06;100244.82;;;4.45;57.81
82887;BME280;72660;51.258;-2.200;2024-03-08T03:20:31;100239.42;;;4.57;57.72
82887;BME280;72660;51.258;-2.200;2024-03-08T03:22:56;100232.10;;;5.00;56.80
82887;BME280;72660;51.258;-2.200;2024-03-08T03:25:22;100236.75;;;4.22;58.59
82887;BME280;72660;51.258;-2.200;2024-03-08T03:27:47;100234.54;;;4.20;58.28
82887;BME280;72660;51.258;-2.200;2024-03-08T03:30:13;100234.29;;;3.92;60.13
82887;BME280;72660;51.258;-2.200;2024-03-08T03:32:38;100228.74;;;3.93;60.39
82887;BME280;72660;51.258;-2.200;2024-03-08T03:35:04;100227.55;;;4.37;58.74
82887;BME280;72660;51.258;-2.200;2024-03-08T03:37:29;100222.80;;;4.37;58.00
82887;BME280;72660;51.258;-2.200;2024-03-08T03:39:55;100221.82;;;4.61;58.36
82887;BME280;72660;51.258;-2.200;2024-03-08T03:42:20;100218.80;;;4.24;58.76
82887;BME280;72660;51.258;-2.200;2024-03-08T03:44:45;100213.83;;;4.60;58.43
82887;BME280;72660;51.258;-2.200;2024-03-08T03:47:11;100206.87;;;4.44;58.20
82887;BME280;72660;51.258;-2.200;2024-03-08T03:49:37;100204.12;;;3.96;59.74
82887;BME280;72660;51.258;-2.200;2024-03-08T03:52:02;100200.15;;;3.62;59.79
82887;BME280;72660;51.258;-2.200;2024-03-08T03:54:27;100197.17;;;3.97;60.08
82887;BME280;72660;51.258;-2.200;2024-03-08T03:56:53;100186.49;;;4.24;60.39
82887;BME280;72660;51.258;-2.200;2024-03-08T03:59:18;100181.05;;;3.23;62.01
82887;BME280;72660;51.258;-2.200;2024-03-08T04:01:44;100180.26;;;3.62;60.39
82887;BME280;72660;51.258;-2.200;2024-03-08T04:04:09;100179.43;;;3.77;60.94
82887;BME280;72660;51.258;-2.200;2024-03-08T04:06:34;100177.54;;;3.66;61.33
82887;BME280;72660;51.258;-2.200;2024-03-08T04:09:05;100171.96;;;3.39;62.12
82887;BME280;72660;51.258;-2.200;2024-03-08T04:11:25;100172.04;;;3.67;61.81
82887;BME280;72660;51.258;-2.200;2024-03-08T04:13:50;100172.03;;;3.89;60.89
82887;BME280;72660;51.258;-2.200;2024-03-08T04:16:16;100171.71;;;3.63;62.24
82887;BME280;72660;51.258;-2.200;2024-03-08T04:18:41;100173.97;;;2.96;63.89
82887;BME280;72660;51.258;-2.200;2024-03-08T04:21:06;100168.30;;;3.10;62.46
82887;BME280;72660;51.258;-2.200;2024-03-08T04:23:32;100160.80;;;2.86;63.79
82887;BME280;72660;51.258;-2.200;2024-03-08T04:25:57;100160.20;;;3.52;61.87
82887;BME280;72660;51.258;-2.200;2024-03-08T04:28:23;100156.12;;;3.20;63.04
82887;BME280;72660;51.258;-2.200;2024-03-08T04:30:48;100152.09;;;3.25;63.00
82887;BME280;72660;51.258;-2.200;2024-03-08T04:33:14;100147.63;;;3.21;63.63
82887;BME280;72660;51.258;-2.200;2024-03-08T04:35:39;100148.82;;;2.56;63.34
82887;BME280;72660;51.258;-2.200;2024-03-08T04:38:04;100144.33;;;3.02;63.12
82887;BME280;72660;51.258;-2.200;2024-03-08T04:40:30;100139.81;;;3.33;62.16
82887;BME280;72660;51.258;-2.200;2024-03-08T04:42:56;100136.43;;;3.26;62.40
82887;BME280;72660;51.258;-2.200;2024-03-08T04:45:22;100132.98;;;3.10;62.35
82887;BME280;72660;51.258;-2.200;2024-03-08T04:47:47;100128.57;;;2.91;62.86
82887;BME280;72660;51.258;-2.200;2024-03-08T04:50:12;100125.76;;;3.52;61.29
82887;BME280;72660;51.258;-2.200;2024-03-08T04:52:37;100123.71;;;3.27;61.54
82887;BME280;72660;51.258;-2.200;2024-03-08T04:55:03;100122.22;;;3.29;61.73
82887;BME280;72660;51.258;-2.200;2024-03-08T04:57:28;100115.01;;;3.29;62.38
82887;BME280;72660;51.258;-2.200;2024-03-08T04:59:53;100108.30;;;3.98;60.03
82887;BME280;72660;51.258;-2.200;2024-03-08T05:02:18;100111.28;;;3.07;61.91
82887;BME280;72660;51.258;-2.200;2024-03-08T05:04:44;100105.24;;;3.90;60.54
82887;BME280;72660;51.258;-2.200;2024-03-08T05:07:09;100105.19;;;3.96;59.98
82887;BME280;72660;51.258;-2.200;2024-03-08T05:09:35;100108.11;;;3.63;60.93
82887;BME280;72660;51.258;-2.200;2024-03-08T05:12:01;100099.47;;;3.87;60.10
82887;BME280;72660;51.258;-2.200;2024-03-08T05:14:26;100102.23;;;4.04;59.66
82887;BME280;72660;51.258;-2.200;2024-03-08T05:16:52;100099.15;;;3.99;59.20
82887;BME280;72660;51.258;-2.200;2024-03-08T05:19:18;100101.36;;;3.69;60.06
82887;BME280;72660;51.258;-2.200;2024-03-08T05:21:43;100101.50;;;3.57;60.30
82887;BME280;72660;51.258;-2.200;2024-03-08T05:24:08;100101.14;;;3.04;61.60
82887;BME280;72660;51.258;-2.200;2024-03-08T05:26:34;100097.25;;;3.50;61.18
82887;BME280;72660;51.258;-2.200;2024-03-08T05:28:59;100093.35;;;2.75;62.30
82887;BME280;72660;51.258;-2.200;2024-03-08T05:31:24;100093.88;;;3.31;61.97
82887;BME280;72660;51.258;-2.200;2024-03-08T05:33:50;100083.52;;;3.81;60.43
82887;BME280;72660;51.258;-2.200;2024-03-08T05:36:15;100079.47;;;3.79;60.54
82887;BME280;72660;51.258;-2.200;2024-03-08T05:38:40;100081.36;;;3.36;60.74
82887;BME280;72660;51.258;-2.200;2024-03-08T05:41:05;100075.74;;;3.91;59.60
82887;BME280;72660;51.258;-2.200;2024-03-08T05:43:30;100071.24;;;4.18;58.83
82887;BME280;72660;51.258;-2.200;2024-03-08T05:45:55;100072.12;;;3.61;60.20
82887;BME280;72660;51.258;-2.200;2024-03-08T05:48:21;100066.35;;;3.35;60.67
82887;BME280;72660;51.258;-2.200;2024-03-08T05:50:47;100074.68;;;3.70;61.12
82887;BME280;72660;51.258;-2.200;2024-03-08T05:53:12;100073.62;;;3.38;61.81
82887;BME280;72660;51.258;-2.200;2024-03-08T05:55:37;100076.71;;;3.22;62.14
82887;BME280;72660;51.258;-2.200;2024-03-08T05:58:02;100075.17;;;3.39;61.80
82887;BME280;72660;51.258;-2.200;2024-03-08T06:00:27;100079.84;;;3.04;62.51
82887;BME280;72660;51.258;-2.200;2024-03-08T06:02:53;100076.68;;;3.84;61.36
82887;BME280;72660;51.258;-2.200;2024-03-08T06:05:18;100076.47;;;3.44;61.15
82887;BME280;72660;51.258;-2.200;2024-03-08T06:07:44;100081.68;;;3.52;61.04
82887;BME280;72660;51.258;-2.200;2024-03-08T06:10:10;100074.84;;;3.69;60.57
82887;BME280;72660;51.258;-2.200;2024-03-08T06:12:35;100077.50;;;3.38;60.94
82887;BME280;72660;51.258;-2.200;2024-03-08T06:15:00;100076.50;;;3.01;61.29
82887;BME280;72660;51.258;-2.200;2024-03-08T06:17:26;100073.66;;;3.34;60.66
82887;BME280;72660;51.258;-2.200;2024-03-08T06:19:51;100078.97;;;2.98;62.56
82887;BME280;72660;51.258;-2.200;2024-03-08T06:22:16;100080.33;;;2.48;63.31
82887;BME280;72660;51.258;-2.200;2024-03-08T06:24:42;100075.28;;;2.60;64.04
82887;BME280;72660;51.258;-2.200;2024-03-08T06:27:07;100069.95;;;3.21;62.79
82887;BME280;72660;51.258;-2.200;2024-03-08T06:29:32;100067.38;;;2.45;63.97
82887;BME280;72660;51.258;-2.200;2024-03-08T06:31:58;100067.87;;;2.79;62.69
82887;BME280;72660;51.258;-2.200;2024-03-08T06:34:23;100064.13;;;3.70;60.66
82887;BME280;72660;51.258;-2.200;2024-03-08T06:36:49;100066.25;;;2.93;63.35
82887;BME280;72660;51.258;-2.200;2024-03-08T06:39:14;100065.12;;;2.72;62.67
82887;BME280;72660;51.258;-2.200;2024-03-08T06:41:40;100066.13;;;2.97;61.98
82887;BME280;72660;51.258;-2.200;2024-03-08T06:44:05;100068.43;;;2.99;62.70
82887;BME280;72660;51.258;-2.200;2024-03-08T06:46:30;100069.78;;;2.99;62.54
82887;BME280;72660;51.258;-2.200;2024-03-08T06:48:56;100070.65;;;3.02;62.62
82887;BME280;72660;51.258;-2.200;2024-03-08T06:51:21;100076.10;;;2.95;61.69
82887;BME280;72660;51.258;-2.200;2024-03-08T06:53:46;100071.24;;;2.56;62.24
82887;BME280;72660;51.258;-2.200;2024-03-08T06:56:12;100071.13;;;2.46;62.42
82887;BME280;72660;51.258;-2.200;2024-03-08T06:58:37;100075.09;;;2.74;62.51
82887;BME280;72660;51.258;-2.200;2024-03-08T07:01:02;100068.71;;;3.18;61.07
82887;BME280;72660;51.258;-2.200;2024-03-08T07:03:28;100072.35;;;2.80;61.19
82887;BME280;72660;51.258;-2.200;2024-03-08T07:05:53;100075.34;;;3.19;60.92
82887;BME280;72660;51.258;-2.200;2024-03-08T07:08:19;100072.22;;;3.06;60.63
82887;BME280;72660;51.258;-2.200;2024-03-08T07:10:44;100076.44;;;3.13;60.85
82887;BME280;72660;51.258;-2.200;2024-03-08T07:13:09;100078.19;;;3.31;60.64
82887;BME280;72660;51.258;-2.200;2024-03-08T07:15:35;100068.51;;;2.54;61.45
82887;BME280;72660;51.258;-2.200;2024-03-08T07:18:00;100068.37;;;3.15;60.92
82887;BME280;72660;51.258;-2.200;2024-03-08T07:20:26;100068.12;;;2.95;61.18
82887;BME280;72660;51.258;-2.200;2024-03-08T07:22:51;100063.03;;;3.09;61.17
82887;BME280;72660;51.258;-2.200;2024-03-08T07:25:17;100063.54;;;2.75;61.95
82887;BME280;72660;51.258;-2.200;2024-03-08T07:27:42;100068.24;;;3.11;61.18
82887;BME280;72660;51.258;-2.200;2024-03-08T07:30:08;100057.77;;;3.06;60.54
82887;BME280;72660;51.258;-2.200;2024-03-08T07:32:32;100053.72;;;3.39;60.32
82887;BME280;72660;51.258;-2.200;2024-03-08T07:34:58;100049.05;;;4.48;57.03
82887;BME280;72660;51.258;-2.200;2024-03-08T07:37:23;100054.34;;;6.16;53.09
82887;BME280;72660;51.258;-2.200;2024-03-08T07:39:49;100053.77;;;6.86;50.60
82887;BME280;72660;51.258;-2.200;2024-03-08T07:42:15;100051.10;;;7.28;49.80
82887;BME280;72660;51.258;-2.200;2024-03-08T07:44:40;100056.81;;;7.79;48.48
82887;BME280;72660;51.258;-2.200;2024-03-08T07:47:05;100046.09;;;7.53;48.53
82887;BME280;72660;51.258;-2.200;2024-03-08T07:49:31;100050.22;;;7.88;48.71
82887;BME280;72660;51.258;-2.200;2024-03-08T07:51:56;100044.02;;;7.18;48.79
82887;BME280;72660;51.258;-2.200;2024-03-08T07:54:22;100038.78;;;7.09;49.07
82887;BME280;72660;51.258;-2.200;2024-03-08T07:56:47;100036.57;;;7.95;47.74
82887;BME280;72660;51.258;-2.200;2024-03-08T07:59:12;100034.65;;;6.91;49.19
82887;BME280;72660;51.258;-2.200;2024-03-08T08:01:38;100029.70;;;7.71;48.07
82887;BME280;72660;51.258;-2.200;2024-03-08T08:04:04;100031.39;;;7.81;47.64
82887;BME280;72660;51.258;-2.200;2024-03-08T08:06:29;100014.92;;;8.42;46.74
82887;BME280;72660;51.258;-2.200;2024-03-08T08:08:55;100016.95;;;7.79;47.75
82887;BME280;72660;51.258;-2.200;2024-03-08T08:11:20;100013.49;;;8.06;47.89
82887;BME280;72660;51.258;-2.200;2024-03-08T08:13:46;100000.45;;;8.18;47.43
82887;BME280;72660;51.258;-2.200;2024-03-08T08:16:11;100001.96;;;8.77;46.02
82887;BME280;72660;51.258;-2.200;2024-03-08T08:18:36;99999.75;;;8.02;46.92
82887;BME280;72660;51.258;-2.200;2024-03-08T08:21:02;99984.19;;;8.93;46.12
82887;BME280;72660;51.258;-2.200;2024-03-08T08:23:27;99983.66;;;8.10;46.66
82887;BME280;72660;51.258;-2.200;2024-03-08T08:25:58;99987.72;;;7.16;48.55
82887;BME280;72660;51.258;-2.200;2024-03-08T08:28:18;99978.71;;;6.38;50.42
82887;BME280;72660;51.258;-2.200;2024-03-08T08:30:44;99970.77;;;6.84;49.79
82887;BME280;72660;51.258;-2.200;2024-03-08T08:33:09;99971.89;;;7.15;50.18
82887;BME280;72660;51.258;-2.200;2024-03-08T08:35:35;99969.05;;;7.28;49.32
82887;BME280;72660;51.258;-2.200;2024-03-08T08:38:00;99961.39;;;6.73;50.24
82887;BME280;72660;51.258;-2.200;2024-03-08T08:40:25;99966.79;;;6.84;50.84
82887;BME280;72660;51.258;-2.200;2024-03-08T08:42:51;99962.60;;;6.67;51.45
82887;BME280;72660;51.258;-2.200;2024-03-08T08:45:16;99951.83;;;6.16;52.04
82887;BME280;72660;51.258;-2.200;2024-03-08T08:47:42;99950.87;;;5.13;53.47
82887;BME280;72660;51.258;-2.200;2024-03-08T08:50:08;99944.14;;;5.68;53.69
82887;BME280;72660;51.258;-2.200;2024-03-08T08:52:33;99956.24;;;5.21;54.21
82887;BME280;72660;51.258;-2.200;2024-03-08T08:54:58;99945.62;;;5.90;53.80
82887;BME280;72660;51.258;-2.200;2024-03-08T08:57:24;99944.81;;;6.02;53.78
82887;BME280;72660;51.258;-2.200;2024-03-08T08:59:49;99940.93;;;5.67;53.43
82887;BME280;72660;51.258;-2.200;2024-03-08T09:02:14;99939.16;;;6.70;51.26
82887;BME280;72660;51.258;-2.200;2024-03-08T09:04:40;99934.12;;;6.27;51.62
82887;BME280;72660;51.258;-2.200;2024-03-08T09:07:06;99921.74;;;5.84;52.84
82887;BME280;72660;51.258;-2.200;2024-03-08T09:09:32;99936.35;;;5.83;52.57
82887;BME280;72660;51.258;-2.200;2024-03-08T09:11:57;99928.35;;;6.05;52.16
82887;BME280;72660;51.258;-2.200;2024-03-08T09:14:22;99931.51;;;6.03;52.08
82887;BME280;72660;51.258;-2.200;2024-03-08T09:16:47;99923.63;;;6.14;52.27
82887;BME280;72660;51.258;-2.200;2024-03-08T09:19:13;99915.04;;;5.56;53.64
82887;BME280;72660;51.258;-2.200;2024-03-08T09:21:38;99907.83;;;5.49;53.63
82887;BME280;72660;51.258;-2.200;2024-03-08T09:24:04;99903.41;;;6.01;52.37
82887;BME280;72660;51.258;-2.200;2024-03-08T09:26:29;99895.42;;;7.03;50.23
82887;BME280;72660;51.258;-2.200;2024-03-08T09:28:54;99891.02;;;6.26;52.13
82887;BME280;72660;51.258;-2.200;2024-03-08T09:31:20;99885.98;;;6.27;51.07
82887;BME280;72660;51.258;-2.200;2024-03-08T09:33:45;99880.05;;;6.58;50.64
82887;BME280;72660;51.258;-2.200;2024-03-08T09:36:10;99889.64;;;6.71;50.26
82887;BME280;72660;51.258;-2.200;2024-03-08T09:38:36;99887.44;;;5.99;51.16
82887;BME280;72660;51.258;-2.200;2024-03-08T09:41:01;99889.05;;;6.13;51.73
82887;BME280;72660;51.258;-2.200;2024-03-08T09:43:26;99892.67;;;5.98;51.41
82887;BME280;72660;51.258;-2.200;2024-03-08T09:45:52;99884.75;;;5.65;52.30
82887;BME280;72660;51.258;-2.200;2024-03-08T09:48:18;99880.71;;;6.04;51.10
82887;BME280;72660;51.258;-2.200;2024-03-08T09:50:43;99883.15;;;6.51;50.45
82887;BME280;72660;51.258;-2.200;2024-03-08T09:53:08;99870.95;;;6.39;50.89
82887;BME280;72660;51.258;-2.200;2024-03-08T09:55:35;99882.32;;;5.97;50.82
82887;BME280;72660;51.258;-2.200;2024-03-08T09:58:00;99868.39;;;6.12;51.22
82887;BME280;72660;51.258;-2.200;2024-03-08T10:00:25;99857.19;;;6.31;50.92
82887;BME280;72660;51.258;-2.200;2024-03-08T10:02:50;99857.49;;;6.11;51.27
82887;BME280;72660;51.258;-2.200;2024-03-08T10:05:17;99856.37;;;6.63;49.96
82887;BME280;72660;51.258;-2.200;2024-03-08T10:07:41;99858.88;;;6.96;49.44
82887;BME280;72660;51.258;-2.200;2024-03-08T10:10:07;99850.25;;;6.42;50.62
82887;BME280;72660;51.258;-2.200;2024-03-08T10:12:32;99843.67;;;7.20;49.23
82887;BME280;72660;51.258;-2.200;2024-03-08T10:14:58;99843.40;;;7.33;48.55
82887;BME280;72660;51.258;-2.200;2024-03-08T10:17:23;99849.89;;;6.94;49.19
82887;BME280;72660;51.258;-2.200;2024-03-08T10:19:51;99827.72;;;6.94;49.09
82887;BME280;72660;51.258;-2.200;2024-03-08T10:22:15;99831.24;;;6.98;49.84
82887;BME280;72660;51.258;-2.200;2024-03-08T10:24:38;99823.38;;;7.47;48.56
82887;BME280;72660;51.258;-2.200;2024-03-08T10:27:04;99817.29;;;7.64;48.19
82887;BME280;72660;51.258;-2.200;2024-03-08T10:29:29;99810.38;;;8.49;46.46
82887;BME280;72660;51.258;-2.200;2024-03-08T10:31:55;99812.69;;;7.17;47.48
82887;BME280;72660;51.258;-2.200;2024-03-08T10:34:20;99799.80;;;7.68;48.13
82887;BME280;72660;51.258;-2.200;2024-03-08T10:36:45;99795.69;;;6.81;48.91
82887;BME280;72660;51.258;-2.200;2024-03-08T10:39:21;99807.21;;;7.73;47.78
82887;BME280;72660;51.258;-2.200;2024-03-08T10:41:37;99787.41;;;7.47;47.56
82887;BME280;72660;51.258;-2.200;2024-03-08T10:44:10;99789.77;;;7.47;47.89
82887;BME280;72660;51.258;-2.200;2024-03-08T10:46:38;99786.05;;;7.33;48.39
82887;BME280;72660;51.258;-2.200;2024-03-08T10:48:52;99777.59;;;7.03;48.02
82887;BME280;72660;51.258;-2.200;2024-03-08T10:51:19;99784.89;;;7.52;47.62
82887;BME280;72660;51.258;-2.200;2024-03-08T10:53:44;99772.79;;;8.93;45.07
82887;BME280;72660;51.258;-2.200;2024-03-08T10:56:09;99772.62;;;9.05;43.59
82887;BME280;72660;51.258;-2.200;2024-03-08T10:58:36;99770.71;;;9.79;43.15
82887;BME280;72660;51.258;-2.200;2024-03-08T11:01:00;99763.18;;;9.30;43.64
82887;BME280;72660;51.258;-2.200;2024-03-08T11:05:50;99756.08;;;9.37;44.09
82887;BME280;72660;51.258;-2.200;2024-03-08T11:08:17;99754.48;;;8.40;43.86
82887;BME280;72660;51.258;-2.200;2024-03-08T11:10:46;99752.59;;;9.16;43.91
82887;BME280;72660;51.258;-2.200;2024-03-08T11:15:32;99753.74;;;8.84;43.74
82887;BME280;72660;51.258;-2.200;2024-03-08T11:17:59;99751.65;;;8.69;43.24
82887;BME280;72660;51.258;-2.200;2024-03-08T11:20:23;99754.63;;;8.29;43.87
82887;BME280;72660;51.258;-2.200;2024-03-08T11:22:50;99750.82;;;8.14;44.61
82887;BME280;72660;51.258;-2.200;2024-03-08T11:30:07;99736.33;;;9.08;43.29
82887;BME280;72660;51.258;-2.200;2024-03-08T11:32:31;99736.71;;;8.75;43.06
82887;BME280;72660;51.258;-2.200;2024-03-08T11:34:59;99720.17;;;9.31;42.48
82887;BME280;72660;51.258;-2.200;2024-03-08T11:37:23;99718.44;;;9.43;42.03
82887;BME280;72660;51.258;-2.200;2024-03-08T11:39:49;99722.70;;;9.39;41.87
82887;BME280;72660;51.258;-2.200;2024-03-08T11:42:14;99719.83;;;8.57;43.08
82887;BME280;72660;51.258;-2.200;2024-03-08T11:44:39;99710.01;;;9.07;42.13
82887;BME280;72660;51.258;-2.200;2024-03-08T11:47:08;99711.28;;;9.43;41.06
82887;BME280;72660;51.258;-2.200;2024-03-08T11:49:32;99714.22;;;9.49;40.97
82887;BME280;72660;51.258;-2.200;2024-03-08T11:51:56;99707.61;;;9.11;41.46
82887;BME280;72660;51.258;-2.200;2024-03-08T11:54:22;99709.94;;;9.95;40.51
82887;BME280;72660;51.258;-2.200;2024-03-08T11:56:47;99701.48;;;9.72;40.73
82887;BME280;72660;51.258;-2.200;2024-03-08T11:59:13;99709.87;;;9.47;40.57
82887;BME280;72660;51.258;-2.200;2024-03-08T12:01:38;99703.08;;;10.17;39.53
82887;BME280;72660;51.258;-2.200;2024-03-08T12:04:04;99705.02;;;10.26;39.04
82887;BME280;72660;51.258;-2.200;2024-03-08T12:06:37;99706.15;;;9.48;40.24
82887;BME280;72660;51.258;-2.200;2024-03-08T12:08:55;99699.75;;;9.21;40.46
82887;BME280;72660;51.258;-2.200;2024-03-08T12:11:20;99691.12;;;9.99;39.33
82887;BME280;72660;51.258;-2.200;2024-03-08T12:13:46;99689.47;;;9.50;39.76
82887;BME280;72660;51.258;-2.200;2024-03-08T12:16:12;99696.08;;;9.62;39.59
82887;BME280;72660;51.258;-2.200;2024-03-08T12:18:38;99694.15;;;10.19;39.13
82887;BME280;72660;51.258;-2.200;2024-03-08T12:21:04;99691.66;;;10.09;38.88
82887;BME280;72660;51.258;-2.200;2024-03-08T12:23:28;99688.31;;;10.01;38.39
82887;BME280;72660;51.258;-2.200;2024-03-08T12:25:53;99679.74;;;10.54;38.10
82887;BME280;72660;51.258;-2.200;2024-03-08T12:28:19;99671.79;;;11.00;38.01
82887;BME280;72660;51.258;-2.200;2024-03-08T12:30:47;99666.57;;;9.13;40.04
82887;BME280;72660;51.258;-2.200;2024-03-08T12:33:10;99668.01;;;10.22;39.55
82887;BME280;72660;51.258;-2.200;2024-03-08T12:35:35;99667.23;;;10.45;38.61
82887;BME280;72660;51.258;-2.200;2024-03-08T12:38:01;99661.34;;;10.55;38.04
82887;BME280;72660;51.258;-2.200;2024-03-08T12:40:27;99659.67;;;10.27;38.28
82887;BME280;72660;51.258;-2.200;2024-03-08T12:42:51;99653.62;;;10.56;38.16
82887;BME280;72660;51.258;-2.200;2024-03-08T12:45:17;99645.49;;;10.81;38.18
82887;BME280;72660;51.258;-2.200;2024-03-08T12:47:42;99632.72;;;11.06;37.63
82887;BME280;72660;51.258;-2.200;2024-03-08T12:50:09;99627.75;;;11.87;37.07
82887;BME280;72660;51.258;-2.200;2024-03-08T12:52:33;99626.02;;;10.69;37.31